Lakefront Airport
KNEW : rendu visible

Aérodrome :











RETROUVEZ-NOUS SUR...

 
LOGIN :

S'inscrire | Disclaimer

   EN    FR    IT 

 









Légende :    VFR   VFR Marginal   IFR   IFR Intensif   IFR Très Intensif
Visi : 
Plafond : 
>= 8 km
>= 3000ft
5 à 8 km
1000 à 3000 ft
1500m à 5 km
500 à 1000 ft
800 à 1500m
200 à 500 ft
< 800m
< 200 ft
Symboles :   Orages  Brouillard  Fortes neiges  Fortes précipitations  Vent > 20 kt






- Altitude de l'aérodrome : 8 ft


KNEW - Lakefront

DERNIER METAR :
  • 200353Z 22007KT 10SM CLR 14/09 A3007 RMK AO2 SLP177 T01440089

METARs EXPIRÉS :
  • 200253Z 22007KT 10SM CLR 15/10 A3006 RMK AO2 SLP172 T01500100 51011
  • 200153Z 20010KT 10SM CLR 16/11 A3006 RMK AO2 SLP171 T01610106

TAF KNEW
Valide du 20 à 00h jusqu'au 21 à 00h UTC


192320Z 2000/2024 VRB03KT P6SM SKC
TEMPO 2010/2012 4SM BR SKC
FM201600 09006KT P6SM SKC
FM202000 11008KT P6SM FEW110 FEW250



MET'MAP, la Météo Aéronautique d'un coup d'oeil ! - Copyright ORBIFLY Décembre 2007 - Disclaimer

ORBIFLY MET'MAP TEAM :

Programmation & Développement : Alexandra Zaïnal
Conception & Développement : Baudouin d'Aumeries
Co-Programmation & Développement : Marc-Olivier Méhu
Soutien technique & logistique : Manuel Goepfert

Contact : metmap@orbifly.com




SOURCES & CREDITS :

   NOAA       Earth
Advisory